Croeserw, United Kingdom
Current Conditions -  °F | °C
As of 5:50 AM on Tuesday 21 Oct 2014 (Local Time) from EGDX Reporting Station
Rain Showers Rain Showers  
Wind Chill: 57°   Ceiling: 2300
Heat Index: 57°   Visibility: 6mi
Dew Point: 54°   Wind: 29mph
Humidity: 88%   Direction: 270°W
Pressure: 29.56"   Gusts: 40mph
Location:  51.64°N, 3.64°W
Report Text: EGDX 210450Z AUTO 27025G35KT 9999 -SHRA FEW015/// BKN023/// 14/12 Q1001
Loading
Personal Weather Stations






























Interactive Weather Map
Tropical Storm Tracking
New forecast layout! Learn more

10-Day Weather Forecast

Advertisements
Track Severe Weather on mobile